createdAt,value
2019-01-20T00:02:27.689Z,100910.15
2019-01-20T00:07:30.353Z,101241.29
2019-01-20T00:12:33.021Z,101234.70
2019-01-20T00:17:55.211Z,101235.77
2019-01-20T00:22:57.897Z,101231.47
2019-01-20T00:33:36.777Z,101235.18
2019-01-20T00:38:58.943Z,101238.65
2019-01-20T00:44:01.622Z,101239.14
2019-01-20T00:49:04.402Z,101235.33
2019-01-20T00:54:26.598Z,101235.50
2019-01-20T00:59:48.774Z,101231.30
2019-01-20T01:05:04.032Z,100815.78
2019-01-20T01:10:26.214Z,101253.89
2019-01-20T01:15:28.888Z,101076.95
2019-01-20T01:20:31.565Z,101227.80
2019-01-20T01:25:34.231Z,101232.45
2019-01-20T01:30:56.412Z,101242.92
2019-01-20T01:36:18.689Z,101239.33
2019-01-20T01:46:38.666Z,101242.80
2019-01-20T01:52:00.837Z,101236.11
2019-01-20T01:57:23.016Z,101234.57
2019-01-20T02:02:45.200Z,101230.20
2019-01-20T02:08:00.745Z,101233.43
2019-01-20T02:13:22.983Z,101254.16
2019-01-20T02:18:25.830Z,101240.02
2019-01-20T02:23:48.001Z,101233.90
2019-01-20T02:29:10.187Z,101238.50
2019-01-20T02:34:32.367Z,100921.44
2019-01-20T02:39:54.557Z,101107.50
2019-01-20T02:45:16.841Z,101266.44
2019-01-20T02:50:39.022Z,100973.99
2019-01-20T02:55:41.696Z,101249.55
2019-01-20T03:01:04.218Z,101243.28
2019-01-20T03:06:19.235Z,101241.02
2019-01-20T03:11:41.423Z,100961.22
2019-01-20T03:17:03.600Z,101240.73
2019-01-20T03:22:25.890Z,100956.30
2019-01-20T03:27:28.581Z,100959.18
2019-01-20T03:32:50.866Z,101234.26
2019-01-20T03:38:13.170Z,101235.05
2019-01-20T03:43:35.362Z,101257.56
2019-01-20T03:48:57.556Z,101235.09
2019-01-20T03:54:19.736Z,101240.59
2019-01-20T03:59:22.396Z,101245.08
2019-01-20T04:04:25.135Z,101238.28
2019-01-20T04:09:47.339Z,101242.78
2019-01-20T04:15:31.112Z,101281.31
2019-01-20T04:20:53.282Z,101257.00
2019-01-20T04:26:16.288Z,101251.45
2019-01-20T04:31:38.473Z,101252.61
2019-01-20T04:37:00.673Z,101235.91
2019-01-20T04:42:28.963Z,101273.93
2019-01-20T04:47:47.019Z,101238.83
2019-01-20T04:53:09.221Z,101237.58
2019-01-20T04:58:31.511Z,101256.69
2019-01-20T05:03:53.739Z,101238.14
2019-01-20T05:09:15.938Z,101238.34
2019-01-20T05:14:38.113Z,101233.99
2019-01-20T05:20:00.300Z,101059.91
2019-01-20T05:25:24.271Z,101237.53
2019-01-20T05:30:46.448Z,101239.66
2019-01-20T05:36:08.651Z,101244.98
2019-01-20T05:41:30.817Z,101247.61
2019-01-20T05:46:52.998Z,101267.95
2019-01-20T05:52:15.190Z,101245.55
2019-01-20T05:57:37.476Z,101242.57
2019-01-20T06:02:59.662Z,101261.55
2019-01-20T06:08:15.256Z,101204.62
2019-01-20T06:13:37.437Z,100974.72
2019-01-20T06:18:59.621Z,101278.57
2019-01-20T06:24:21.802Z,101268.98
2019-01-20T06:29:43.967Z,101130.67
2019-01-20T06:35:06.373Z,101268.74
2019-01-20T06:40:28.548Z,101270.05
2019-01-20T06:45:50.718Z,100854.52
2019-01-20T06:51:12.897Z,101253.80
2019-01-20T06:56:35.072Z,101278.00
2019-01-20T07:01:57.271Z,101285.88
2019-01-20T07:07:12.839Z,101290.57
2019-01-20T07:12:35.024Z,101306.34
2019-01-20T07:17:57.218Z,101310.41
2019-01-20T07:23:19.452Z,101339.88
2019-01-20T07:28:41.624Z,101347.02
2019-01-20T07:33:44.294Z,101316.91
2019-01-20T07:39:07.065Z,101317.17
2019-01-20T07:44:29.247Z,101343.14
2019-01-20T07:49:51.429Z,101340.28
2019-01-20T07:55:13.615Z,101339.37
2019-01-20T08:00:35.797Z,101360.65
2019-01-20T08:05:50.956Z,101345.67
2019-01-20T08:11:13.139Z,101350.47
2019-01-20T08:16:35.319Z,101369.66
2019-01-20T08:21:57.508Z,101368.42
2019-01-20T08:27:19.695Z,101386.81
2019-01-20T08:32:41.871Z,101394.84
2019-01-20T08:38:04.172Z,101376.80
2019-01-20T08:43:31.737Z,101386.50
2019-01-20T08:48:51.630Z,101393.03
2019-01-20T08:54:13.811Z,101401.01
2019-01-20T08:59:35.993Z,101355.98
2019-01-20T09:04:51.436Z,101403.14
2019-01-20T09:10:17.600Z,101412.86
2019-01-20T09:15:39.774Z,101435.39
2019-01-20T09:21:01.958Z,101429.38
2019-01-20T09:26:24.165Z,101157.22
2019-01-20T09:31:46.330Z,101439.78
2019-01-20T09:36:49.000Z,101433.56
2019-01-20T09:42:11.170Z,101442.67
2019-01-20T09:47:33.352Z,101452.00
2019-01-20T09:52:55.626Z,101474.02
2019-01-20T09:58:19.292Z,101458.66
2019-01-20T10:03:41.900Z,101452.41
2019-01-20T10:08:57.157Z,101450.33
2019-01-20T10:14:19.326Z,101488.89
2019-01-20T10:19:22.018Z,101460.70
2019-01-20T10:24:44.199Z,101463.95
2019-01-20T10:30:11.378Z,101195.92
2019-01-20T10:35:53.164Z,101346.34
2019-01-20T10:41:15.422Z,101129.41
2019-01-20T10:46:37.746Z,101053.83
2019-01-20T10:51:59.905Z,101483.12
2019-01-20T10:57:22.082Z,101461.72
2019-01-20T11:02:44.269Z,101456.80
2019-01-20T11:08:01.174Z,100989.63
2019-01-20T11:13:23.459Z,101469.48
2019-01-20T11:18:45.637Z,101056.19
2019-01-20T11:24:07.811Z,101464.08
2019-01-20T11:29:29.989Z,101158.13
2019-01-20T11:34:52.176Z,101139.06
2019-01-20T11:40:14.369Z,101181.53
2019-01-20T11:45:36.555Z,101482.98
2019-01-20T11:50:39.235Z,101453.05
2019-01-20T11:56:01.405Z,101494.87
2019-01-20T12:01:23.586Z,101390.64
2019-01-20T12:06:39.339Z,101178.14
2019-01-20T12:12:01.516Z,101492.84
2019-01-20T12:17:23.679Z,101182.13
2019-01-20T12:22:45.854Z,101236.36
2019-01-20T12:28:08.029Z,101514.16
2019-01-20T12:33:30.212Z,101494.42
2019-01-20T12:38:52.385Z,101535.13
2019-01-20T12:49:23.910Z,101501.28
2019-01-20T12:54:46.084Z,101493.42
2019-01-20T13:00:10.145Z,101489.17
2019-01-20T13:05:25.073Z,101490.73
2019-01-20T13:10:27.760Z,101491.45
2019-01-20T13:15:49.948Z,101505.58
2019-01-20T13:21:12.135Z,101495.95
2019-01-20T13:26:34.319Z,101499.39
2019-01-20T13:31:56.514Z,101504.67
2019-01-20T13:37:18.695Z,101501.42
2019-01-20T13:42:40.908Z,101374.31
2019-01-20T13:48:03.950Z,101530.77
2019-01-20T13:53:26.129Z,101506.70
2019-01-20T13:58:48.317Z,101504.59
2019-01-20T14:04:10.514Z,101514.30
2019-01-20T14:09:26.160Z,101506.35
2019-01-20T14:14:53.904Z,101528.43
2019-01-20T14:20:15.191Z,101535.28
2019-01-20T14:25:37.398Z,101266.48
2019-01-20T14:30:59.561Z,101537.63
2019-01-20T14:36:21.760Z,101539.48
2019-01-20T14:41:24.430Z,101539.89
2019-01-20T14:46:46.611Z,101537.54
2019-01-20T14:52:08.816Z,101354.11
2019-01-20T14:57:31.008Z,101547.95
2019-01-20T15:02:53.198Z,101557.25
2019-01-20T15:08:08.125Z,101491.25
2019-01-20T15:13:30.315Z,101558.72
2019-01-20T15:18:52.507Z,101558.52
2019-01-20T15:24:14.715Z,101568.79
2019-01-20T15:29:36.887Z,101572.95
2019-01-20T15:34:59.121Z,101298.13
2019-01-20T15:40:21.469Z,101572.09
2019-01-20T15:45:43.663Z,101604.97
2019-01-20T15:51:05.844Z,101439.47
2019-01-20T15:56:28.041Z,101586.61
2019-01-20T16:01:50.236Z,101611.45
2019-01-20T16:07:06.048Z,101597.67
2019-01-20T16:12:28.231Z,101615.44
2019-01-20T16:17:52.635Z,101617.74
2019-01-20T16:23:14.823Z,101617.49
2019-01-20T16:28:37.015Z,101653.14
2019-01-20T16:33:59.199Z,101212.52
2019-01-20T16:39:21.394Z,101633.22
2019-01-20T16:44:43.579Z,101643.31
2019-01-20T16:50:08.019Z,101645.41
2019-01-20T16:55:30.208Z,101322.36
2019-01-20T17:00:52.413Z,101658.42
2019-01-20T17:06:07.810Z,101655.67
2019-01-20T17:11:29.989Z,101334.13
2019-01-20T17:16:52.168Z,101694.22
2019-01-20T17:22:14.358Z,101673.77
2019-01-20T17:27:36.548Z,101682.95
2019-01-20T17:32:58.740Z,101696.20
2019-01-20T17:38:20.928Z,101695.16
2019-01-20T17:43:43.110Z,101680.03
2019-01-20T17:49:05.301Z,101509.03
2019-01-20T17:54:27.478Z,101696.23
2019-01-20T17:59:49.666Z,101695.59
2019-01-20T18:05:05.327Z,101277.97
2019-01-20T18:10:27.510Z,101716.13
2019-01-20T18:15:54.293Z,101569.88
2019-01-20T18:21:13.783Z,101733.23
2019-01-20T18:26:35.957Z,101287.98
2019-01-20T18:31:58.147Z,101733.28
2019-01-20T18:37:20.332Z,101727.97
2019-01-20T18:42:42.563Z,101750.17
2019-01-20T18:47:45.361Z,101722.64
2019-01-20T18:53:07.567Z,101729.72
2019-01-20T18:58:29.769Z,101610.75
2019-01-20T19:03:32.484Z,101732.86
2019-01-20T19:08:47.376Z,101739.48
2019-01-20T19:14:09.716Z,101766.84
2019-01-20T19:19:12.840Z,101738.64
2019-01-20T19:24:15.802Z,101739.84
2019-01-20T19:29:37.977Z,101739.39
2019-01-20T19:35:00.226Z,101481.60
2019-01-20T19:40:22.463Z,101748.26
2019-01-20T19:45:44.660Z,101762.60
2019-01-20T19:51:06.849Z,101506.09
2019-01-20T19:56:29.037Z,101769.51
2019-01-20T20:01:51.204Z,101765.26
2019-01-20T20:06:54.039Z,101612.39
2019-01-20T20:12:16.214Z,101765.92
2019-01-20T20:17:38.398Z,101778.57
2019-01-20T20:23:00.584Z,101497.21
2019-01-20T20:28:22.744Z,101793.66
2019-01-20T20:33:44.922Z,101804.22
2019-01-20T20:38:47.660Z,101805.81
2019-01-20T20:44:09.968Z,101808.21
2019-01-20T20:49:12.669Z,101820.66
2019-01-20T20:54:35.782Z,101820.16
2019-01-20T20:59:58.982Z,101828.33
2019-01-20T21:05:14.547Z,101828.62
2019-01-20T21:10:36.725Z,101866.51
2019-01-20T21:15:59.836Z,101865.33
2019-01-20T21:21:26.555Z,101839.94
2019-01-20T21:26:46.103Z,101421.92
2019-01-20T21:32:08.273Z,101851.70
2019-01-20T21:37:30.473Z,101676.40
2019-01-20T21:42:52.794Z,101630.80
2019-01-20T21:48:15.107Z,101859.75
2019-01-20T21:53:37.308Z,101611.00
2019-01-20T21:58:59.532Z,101852.65
2019-01-20T22:04:21.723Z,101868.16
2019-01-20T22:09:37.304Z,101813.90
2019-01-20T22:14:59.506Z,101572.12
2019-01-20T22:20:22.561Z,101370.89
2019-01-20T22:25:44.746Z,101868.63
2019-01-20T22:31:06.933Z,101862.51
2019-01-20T22:36:29.110Z,101867.22
2019-01-20T22:41:31.786Z,101506.65
2019-01-20T22:47:00.033Z,101864.42
2019-01-20T22:52:18.064Z,101572.21
2019-01-20T22:57:40.375Z,101536.35
2019-01-20T23:03:02.559Z,101893.73
2019-01-20T23:08:18.238Z,101902.53
2019-01-20T23:13:40.449Z,101892.44
2019-01-20T23:18:43.116Z,101916.05
2019-01-20T23:23:45.788Z,101890.97
2019-01-20T23:28:48.552Z,101888.58
2019-01-20T23:33:51.338Z,101884.13
2019-01-20T23:39:13.510Z,101891.57
2019-01-20T23:44:35.681Z,101888.84
2019-01-20T23:49:57.864Z,101607.77
2019-01-20T23:55:20.040Z,101610.10
